Time;durP1;ratioP1;P1;durP2;ratioP2;P2;SDS_P1;SDS_P2;PMS_P1;PMS_P2;Temp;Humidity;BMP_temperature;BMP_pressure;BME280_temperature;BME280_humidity;BME280_pressure;Samples;Min_cycle;Max_cycle;Signal;HPM_P1;HPM_P2
2022/02/10 00:15:03;;;;;;;30.58;16.05;;;11.10;73.40;;;;;;4997973;28;20348;-85
2022/02/10 00:23:04;;;;;;;32.78;16.60;;;10.90;73.40;;;;;;4998848;28;20081;-87
2022/02/10 00:36:36;;;;;;;30.40;16.75;;;10.60;74.10;;;;;;4997041;28;20118;-86
2022/02/10 00:41:51;;;;;;;34.17;18.42;;;10.50;73.80;;;;;;4997314;28;20081;-86
2022/02/10 00:44:19;;;;;;;32.65;17.73;;;10.50;73.60;;;;;;4978545;28;20068;-73
2022/02/10 00:46:45;;;;;;;42.70;19.15;;;10.50;73.60;;;;;;4997601;28;20034;-76
2022/02/10 00:49:17;;;;;;;28.77;18.35;;;10.40;73.60;;;;;;4995472;28;20184;-77
2022/02/10 00:51:45;;;;;;;29.98;18.83;;;10.40;73.50;;;;;;4996339;28;20503;-75
2022/02/10 00:54:11;;;;;;;29.83;19.40;;;10.50;73.50;;;;;;4997980;28;20042;-70
2022/02/10 00:56:41;;;;;;;38.20;20.17;;;10.40;73.00;;;;;;4996001;28;20014;-72
2022/02/10 01:13:26;;;;;;;37.50;20.15;;;10.10;71.60;;;;;;4982311;28;20530;-81
2022/02/10 01:29:42;;;;;;;33.45;20.58;;;9.90;72.60;;;;;;4995131;28;20041;-77
2022/02/10 01:32:11;;;;;;;37.53;20.95;;;9.90;72.70;;;;;;4994717;28;20133;-75
2022/02/10 01:34:46;;;;;;;36.80;21.02;;;9.80;72.60;;;;;;4975650;28;20043;-83
2022/02/10 01:37:13;;;;;;;34.28;21.90;;;9.80;72.80;;;;;;4995303;28;20427;-81
2022/02/10 01:39:45;;;;;;;34.63;21.55;;;9.80;72.90;;;;;;4995114;28;20113;-75
2022/02/10 02:04:21;;;;;;;35.30;21.92;;;9.80;72.60;;;;;;4977609;28;20037;-66
2022/02/10 02:06:52;;;;;;;45.88;22.92;;;9.80;72.20;;;;;;4974497;28;20038;-67
2022/02/10 02:09:19;;;;;;;36.53;21.65;;;9.90;72.00;;;;;;4957020;28;20031;-67
2022/02/10 02:11:52;;;;;;;36.30;22.15;;;9.80;72.10;;;;;;4973958;28;20468;-66
2022/02/10 02:14:24;;;;;;;31.08;20.95;;;9.80;72.10;;;;;;4956646;28;20608;-66
2022/02/10 02:17:02;;;;;;;38.53;22.45;;;9.70;71.90;;;;;;4974004;28;20069;-68
2022/02/10 02:19:29;;;;;;;38.03;22.15;;;9.70;72.10;;;;;;4973314;28;20041;-66
2022/02/10 02:22:13;;;;;;;36.42;21.95;;;9.60;72.30;;;;;;4973824;28;20038;-67
2022/02/10 02:24:40;;;;;;;35.47;22.15;;;9.50;72.30;;;;;;4972542;28;20039;-65
2022/02/10 02:27:09;;;;;;;37.60;22.80;;;9.50;72.40;;;;;;4974117;28;20022;-65
2022/02/10 02:29:42;;;;;;;35.92;22.25;;;9.50;72.40;;;;;;4977237;28;20094;-66
2022/02/10 02:32:15;;;;;;;37.95;22.42;;;9.50;72.50;;;;;;4977347;28;20031;-66
2022/02/10 03:05:07;;;;;;;35.85;23.30;;;9.20;72.70;;;;;;4977181;28;20045;-66
2022/02/10 03:07:51;;;;;;;34.33;22.33;;;9.20;72.40;;;;;;4976589;28;20396;-66
2022/02/10 03:10:51;;;;;;;33.78;22.13;;;9.10;72.40;;;;;;4976554;28;20027;-66
2022/02/10 03:13:04;;;;;;;36.63;21.92;;;9.10;72.60;;;;;;4974945;28;20137;-66
2022/02/10 03:15:39;;;;;;;34.60;22.25;;;9.20;72.20;;;;;;4976513;28;20061;-66
2022/02/10 03:20:57;;;;;;;35.40;23.77;;;9.20;72.30;;;;;;4976412;28;20391;-65
2022/02/10 04:15:42;;;;;;;31.38;19.15;;;8.70;71.80;;;;;;4977671;28;20041;-66
2022/02/10 04:24:03;;;;;;;26.85;18.60;;;8.70;72.00;;;;;;4976091;28;20039;-70
2022/02/10 04:26:41;;;;;;;28.65;17.63;;;8.70;72.10;;;;;;4974752;28;20106;-66
2022/02/10 04:58:57;;;;;;;27.73;16.42;;;8.30;71.80;;;;;;4993806;28;20038;-66
2022/02/10 05:07:47;;;;;;;29.45;16.10;;;8.10;72.60;;;;;;4994046;28;20070;-67
2022/02/10 05:22:48;;;;;;;29.15;17.70;;;7.80;73.10;;;;;;4994022;28;20050;-64
2022/02/10 05:33:44;;;;;;;27.85;16.25;;;7.80;74.00;;;;;;4994059;28;20077;-68
2022/02/10 05:36:14;;;;;;;24.92;14.98;;;7.80;73.80;;;;;;4993656;28;20100;-66
2022/02/10 05:39:09;;;;;;;28.75;14.43;;;7.80;73.30;;;;;;4993642;28;20036;-66
2022/02/10 05:44:51;;;;;;;21.10;12.45;;;7.80;73.60;;;;;;4956808;28;20374;-66
2022/02/10 05:55:52;;;;;;;21.67;13.68;;;7.70;73.40;;;;;;4994241;28;20035;-67
2022/02/10 05:58:30;;;;;;;24.60;13.77;;;7.60;73.50;;;;;;4994184;28;20476;-66
2022/02/10 06:53:31;;;;;;;36.33;16.80;;;7.60;75.90;;;;;;4962241;28;20533;-71
2022/02/10 07:54:56;;;;;;;24.47;16.33;;;9.30;69.80;;;;;;4978817;28;20062;-75
2022/02/10 07:57:43;;;;;;;30.15;16.67;;;9.30;69.80;;;;;;4997272;28;20293;-76
2022/02/10 09:00:06;;;;;;;19.38;9.40;;;9.90;65.50;;;;;;4994019;28;20454;-75
2022/02/10 09:13:10;;;;;;;16.33;9.55;;;10.20;63.80;;;;;;4978660;28;20149;-74
2022/02/10 10:04:12;;;;;;;15.77;9.50;;;11.80;57.10;;;;;;4993387;28;20027;-75
2022/02/10 10:06:48;;;;;;;18.30;9.18;;;11.90;57.30;;;;;;4993278;28;20065;-73
2022/02/10 10:14:48;;;;;;;18.67;9.40;;;12.20;55.90;;;;;;4993462;28;20054;-73
2022/02/10 10:17:43;;;;;;;28.45;12.50;;;12.40;55.80;;;;;;4994534;28;20018;-75
2022/02/10 10:20:30;;;;;;;;;;;12.50;54.80;;;;;;4981515;28;20042;-74
2022/02/10 10:23:22;;;;;;;17.08;8.15;;;12.60;53.90;;;;;;4993325;28;20378;-77
2022/02/10 11:43:40;;;;;;;20.55;9.07;;;16.00;43.50;;;;;;4995640;28;20473;-75
2022/02/10 14:10:33;;;;;;;10.63;3.28;;;18.70;33.50;;;;;;4996616;28;20033;-80
2022/02/10 14:18:23;;;;;;;5.95;1.85;;;18.80;32.60;;;;;;4992901;28;20054;-77
2022/02/10 14:28:22;;;;;;;5.93;2.40;;;18.70;30.60;;;;;;4998273;28;20458;-79
2022/02/10 14:30:52;;;;;;;3.28;1.45;;;18.60;30.40;;;;;;4998272;28;20030;-80
2022/02/10 14:33:29;;;;;;;5.82;2.00;;;18.60;30.70;;;;;;4996549;28;20036;-79
2022/02/10 16:18:14;;;;;;;9.40;2.55;;;16.30;39.60;;;;;;4994529;28;20046;-74
2022/02/10 16:20:46;;;;;;;9.45;2.30;;;16.20;40.40;;;;;;4960742;28;20134;-74
2022/02/10 16:23:17;;;;;;;12.48;2.20;;;16.10;40.30;;;;;;4994108;28;20030;-77
2022/02/10 16:26:08;;;;;;;7.72;2.17;;;16.00;40.70;;;;;;4994106;28;20031;-75
2022/02/10 16:28:35;;;;;;;4.72;2.10;;;15.90;41.10;;;;;;4979860;28;20030;-77
2022/02/10 16:31:02;;;;;;;8.10;2.78;;;15.80;41.20;;;;;;4993635;28;20018;-74
2022/02/10 16:33:33;;;;;;;8.35;3.13;;;15.70;41.80;;;;;;4993668;28;20555;-75
2022/02/10 16:36:00;;;;;;;8.70;4.15;;;15.60;42.30;;;;;;4993482;28;20583;-80
2022/02/10 16:38:27;;;;;;;12.77;5.00;;;15.50;42.40;;;;;;4993572;28;20030;-74
2022/02/10 16:40:55;;;;;;;10.23;3.35;;;15.40;42.60;;;;;;4993639;28;20025;-74
2022/02/10 16:43:21;;;;;;;6.95;2.53;;;15.30;42.60;;;;;;4993723;28;20026;-78
2022/02/10 16:45:47;;;;;;;11.68;3.50;;;15.20;43.30;;;;;;4993610;28;20026;-75
2022/02/10 16:48:13;;;;;;;21.70;10.63;;;15.20;43.20;;;;;;4993618;28;20023;-77
2022/02/10 16:50:43;;;;;;;12.57;4.28;;;15.10;43.60;;;;;;4993262;28;20569;-73
2022/02/10 16:53:12;;;;;;;10.25;3.45;;;15.00;43.60;;;;;;4975786;28;20085;-74
2022/02/10 16:55:50;;;;;;;10.38;4.85;;;15.00;44.00;;;;;;4976148;28;20479;-77
2022/02/10 17:30:19;;;;;;;36.60;24.75;;;14.30;48.10;;;;;;4992902;28;20391;-75
2022/02/10 17:35:34;;;;;;;24.60;14.07;;;14.20;49.00;;;;;;4976982;28;20113;-80
2022/02/10 17:46:07;;;;;;;21.17;7.50;;;14.10;49.00;;;;;;4997666;28;20088;-81
2022/02/10 17:54:03;;;;;;;12.77;6.15;;;13.90;49.80;;;;;;4993786;28;20097;-82
2022/02/10 17:56:31;;;;;;;15.88;7.35;;;13.90;50.20;;;;;;4975630;28;20110;-79
2022/02/10 17:59:00;;;;;;;15.50;5.95;;;13.80;50.90;;;;;;4994964;28;20117;-79
2022/02/10 18:01:27;;;;;;;15.80;6.85;;;13.80;51.20;;;;;;4997242;28;20466;-79
2022/02/10 18:03:54;;;;;;;17.20;7.45;;;13.70;51.70;;;;;;4997192;28;20113;-79
2022/02/10 18:06:22;;;;;;;16.17;6.28;;;13.70;52.60;;;;;;4999496;28;20022;-81
2022/02/10 18:14:12;;;;;;;13.10;6.00;;;13.50;54.10;;;;;;4998364;28;20085;-77
2022/02/10 18:16:52;;;;;;;13.20;6.95;;;13.50;54.50;;;;;;4980090;28;20391;-75
2022/02/10 18:19:29;;;;;;;15.80;5.90;;;13.50;55.40;;;;;;4996671;28;20037;-76
2022/02/10 19:08:19;;;;;;;17.55;6.78;;;12.90;65.90;;;;;;4969794;28;20038;-77
2022/02/10 19:10:48;;;;;;;23.58;7.47;;;12.90;66.20;;;;;;4995646;28;20038;-73
2022/02/10 19:13:17;;;;;;;22.15;7.05;;;12.90;66.60;;;;;;4995600;28;20038;-74
2022/02/10 19:15:43;;;;;;;17.40;7.18;;;12.90;67.20;;;;;;4995530;28;20504;-75
2022/02/10 19:18:10;;;;;;;17.80;6.78;;;12.90;68.00;;;;;;4995381;28;20030;-73
2022/02/10 19:20:36;;;;;;;19.02;7.13;;;12.80;68.40;;;;;;4978211;28;20061;-73
2022/02/10 19:23:09;;;;;;;17.65;6.75;;;12.90;69.00;;;;;;4995608;28;20498;-73
2022/02/10 19:25:37;;;;;;;21.73;6.53;;;12.80;69.30;;;;;;4995684;28;20046;-73
2022/02/10 19:28:04;;;;;;;15.68;6.70;;;12.80;69.90;;;;;;4977909;28;20030;-74
2022/02/10 19:30:32;;;;;;;18.13;7.20;;;12.80;70.60;;;;;;4995755;28;20044;-75
2022/02/10 19:33:01;;;;;;;17.05;6.07;;;12.70;70.90;;;;;;4995598;28;20103;-81
2022/02/10 19:35:30;;;;;;;19.00;6.57;;;12.80;72.20;;;;;;4995990;28;20069;-78
2022/02/10 19:38:00;;;;;;;17.52;6.97;;;12.80;72.10;;;;;;4993823;28;20371;-75
2022/02/10 19:40:28;;;;;;;20.63;7.72;;;12.70;72.40;;;;;;4995365;28;20066;-72
2022/02/10 19:42:55;;;;;;;28.40;8.88;;;12.80;72.30;;;;;;4977240;28;20030;-72
2022/02/10 19:45:23;;;;;;;33.92;11.77;;;12.70;72.60;;;;;;4989493;28;20029;-74
2022/02/10 19:47:51;;;;;;;22.42;10.40;;;12.80;72.80;;;;;;4988728;28;20937;-74
2022/02/10 19:50:25;;;;;;;20.27;9.85;;;12.70;72.60;;;;;;4990397;28;20147;-70
2022/02/10 19:52:52;;;;;;;33.13;12.43;;;12.70;72.70;;;;;;4995971;28;20439;-79
2022/02/10 19:55:21;;;;;;;33.10;15.70;;;12.70;72.80;;;;;;4995661;28;20039;-79
2022/02/10 19:57:50;;;;;;;28.52;15.65;;;12.70;72.70;;;;;;4995214;28;20157;-72
2022/02/10 20:00:21;;;;;;;30.52;15.30;;;12.70;72.60;;;;;;4992470;28;20057;-78
2022/02/10 20:02:49;;;;;;;27.00;14.05;;;12.60;72.40;;;;;;4994546;28;20069;-77
2022/02/10 20:05:18;;;;;;;31.50;13.63;;;12.60;72.60;;;;;;4994506;28;20062;-71
2022/02/10 20:07:48;;;;;;;22.70;13.30;;;12.50;72.60;;;;;;4994779;28;20204;-76
2022/02/10 20:10:14;;;;;;;24.88;13.40;;;12.50;72.70;;;;;;4977180;28;20100;-73
2022/02/10 20:12:40;;;;;;;23.83;13.07;;;12.50;72.90;;;;;;4976427;28;20555;-74
2022/02/10 20:15:08;;;;;;;28.35;13.82;;;12.40;73.30;;;;;;4993078;28;20395;-74
2022/02/10 20:17:34;;;;;;;24.65;13.50;;;12.40;73.50;;;;;;4991381;28;20022;-76
2022/02/10 20:19:59;;;;;;;29.90;14.27;;;12.40;73.40;;;;;;4989184;28;20029;-73
2022/02/10 20:22:25;;;;;;;31.20;15.50;;;12.40;73.90;;;;;;4993178;28;20053;-75
2022/02/10 20:24:51;;;;;;;31.92;16.80;;;12.40;74.20;;;;;;4987811;28;20061;-73
2022/02/10 20:27:17;;;;;;;26.73;16.73;;;12.30;74.20;;;;;;4985740;28;20089;-73
2022/02/10 20:29:42;;;;;;;32.22;17.88;;;12.20;74.20;;;;;;4975102;28;20050;-75
2022/02/10 20:32:08;;;;;;;32.83;17.95;;;12.20;74.60;;;;;;4989840;28;20039;-76
2022/02/10 20:34:34;;;;;;;29.15;16.77;;;12.20;74.80;;;;;;4986733;28;20034;-73
2022/02/10 20:37:03;;;;;;;30.67;16.83;;;12.10;75.10;;;;;;4989460;28;20030;-73
2022/02/10 20:39:29;;;;;;;30.02;16.92;;;12.20;75.20;;;;;;4993455;28;20045;-73
2022/02/10 20:42:03;;;;;;;31.85;17.33;;;12.20;75.40;;;;;;4970925;28;20026;-72
2022/02/10 20:44:29;;;;;;;32.72;19.05;;;12.20;75.50;;;;;;4993938;28;20076;-73
2022/02/10 20:46:55;;;;;;;28.50;17.35;;;12.10;75.50;;;;;;4993832;28;20026;-72
2022/02/10 20:49:27;;;;;;;31.17;18.10;;;12.10;75.70;;;;;;4972709;28;20043;-73
2022/02/10 20:51:53;;;;;;;29.45;16.48;;;12.10;75.50;;;;;;4991372;28;20042;-74
2022/02/10 20:54:20;;;;;;;33.60;17.70;;;12.10;76.20;;;;;;4976168;28;20041;-75
2022/02/10 20:56:45;;;;;;;33.75;17.48;;;12.10;75.20;;;;;;4993725;28;20037;-75
2022/02/10 20:59:29;;;;;;;29.98;16.88;;;12.10;75.20;;;;;;4993983;28;20022;-74
2022/02/10 21:01:59;;;;;;;31.27;18.40;;;12.10;75.10;;;;;;4974607;28;20036;-76
2022/02/10 21:04:30;;;;;;;33.40;18.98;;;12.10;74.90;;;;;;4976890;28;20022;-72
2022/02/10 21:07:02;;;;;;;42.47;18.60;;;12.00;74.50;;;;;;4990132;28;20073;-78
2022/02/10 21:12:09;;;;;;;37.88;19.17;;;11.90;74.10;;;;;;4975595;28;20505;-74
2022/02/10 21:14:34;;;;;;;34.30;20.83;;;11.90;73.40;;;;;;4974187;28;20499;-77
2022/02/10 21:17:07;;;;;;;36.42;23.30;;;11.90;72.80;;;;;;4973822;28;20023;-79
2022/02/10 21:19:34;;;;;;;39.03;22.65;;;11.80;72.40;;;;;;4985211;28;20026;-75
2022/02/10 21:22:06;;;;;;;41.83;23.10;;;11.70;71.70;;;;;;4940735;28;20097;-76
2022/02/10 21:24:32;;;;;;;39.67;24.30;;;11.70;71.40;;;;;;4966201;28;20130;-73
2022/02/10 21:29:42;;;;;;;40.70;23.65;;;11.50;70.30;;;;;;4978430;28;20122;-69
2022/02/10 21:32:08;;;;;;;35.60;23.40;;;11.50;70.70;;;;;;4992499;28;20114;-71
2022/02/10 21:34:47;;;;;;;36.50;21.38;;;11.50;70.40;;;;;;4975457;28;20452;-69
2022/02/10 21:37:16;;;;;;;35.70;22.88;;;11.50;70.00;;;;;;4971445;28;20108;-71
2022/02/10 22:19:59;;;;;;;;;;;11.20;67.00;;;;;;4957072;29;20126;-75
2022/02/10 22:22:35;;;;;;;41.95;27.98;;;11.00;66.50;;;;;;4954245;29;19911;-75
2022/02/10 22:25:07;;;;;;;51.53;31.25;;;11.00;67.20;;;;;;4953931;29;20035;-75
2022/02/10 22:27:37;;;;;;;48.65;32.33;;;10.90;66.50;;;;;;4953736;29;20070;-74
2022/02/10 22:30:11;;;;;;;45.83;29.63;;;10.90;66.80;;;;;;4936354;29;20020;-81
2022/02/10 22:35:38;;;;;;;57.83;32.40;;;10.90;66.70;;;;;;4894639;29;20044;-79
2022/02/10 22:38:04;;;;;;;49.47;31.20;;;11.00;66.60;;;;;;4966563;28;20490;-75
2022/02/10 22:40:42;;;;;;;54.55;32.83;;;11.00;66.40;;;;;;4992316;28;20105;-78
2022/02/10 22:43:08;;;;;;;55.60;34.33;;;10.90;66.20;;;;;;4966233;28;20053;-80
2022/02/10 22:45:34;;;;;;;56.65;36.67;;;11.00;65.90;;;;;;4993144;28;20053;-77
2022/02/10 22:48:00;;;;;;;61.88;40.92;;;10.90;65.40;;;;;;4993107;28;20023;-77
2022/02/10 22:50:27;;;;;;;64.05;39.72;;;10.80;64.70;;;;;;4989744;28;20100;-79
2022/02/10 22:52:54;;;;;;;62.97;39.50;;;10.80;64.80;;;;;;4978073;28;20491;-72
2022/02/10 22:55:20;;;;;;;66.40;39.50;;;10.70;64.50;;;;;;4978707;28;20491;-71
2022/02/10 22:57:48;;;;;;;63.17;39.25;;;10.60;64.30;;;;;;4996053;28;20379;-72
2022/02/10 23:00:30;;;;;;;71.60;39.20;;;10.60;64.30;;;;;;4996074;28;20044;-70
2022/02/10 23:02:56;;;;;;;64.45;38.55;;;10.60;64.30;;;;;;4996152;28;20026;-70
2022/02/10 23:05:23;;;;;;;69.40;41.17;;;10.60;63.80;;;;;;4978658;28;20392;-71
2022/02/10 23:07:55;;;;;;;66.18;41.50;;;10.60;63.80;;;;;;4995830;28;20026;-70
2022/02/10 23:13:05;;;;;;;67.43;40.53;;;10.60;62.90;;;;;;4995758;28;20061;-70
2022/02/10 23:15:37;;;;;;;61.75;39.78;;;10.50;62.40;;;;;;4978326;28;20101;-70
2022/02/10 23:18:09;;;;;;;64.20;38.38;;;10.50;62.20;;;;;;4979216;28;20033;-70
2022/02/10 23:20:35;;;;;;;62.97;37.08;;;10.50;62.00;;;;;;4978040;28;20030;-70
2022/02/10 23:23:03;;;;;;;59.90;37.90;;;10.50;61.50;;;;;;4995650;28;20026;-70
2022/02/10 23:25:29;;;;;;;63.38;36.92;;;10.60;61.00;;;;;;4995657;28;20483;-69
2022/02/10 23:27:55;;;;;;;60.42;37.30;;;10.50;60.70;;;;;;4978270;28;20030;-70
2022/02/10 23:30:25;;;;;;;65.38;37.05;;;10.40;60.60;;;;;;4995481;28;20032;-69
2022/02/10 23:32:53;;;;;;;62.65;35.97;;;10.40;60.60;;;;;;4995357;28;20053;-70
2022/02/10 23:38:03;;;;;;;58.55;33.88;;;10.40;60.70;;;;;;4995366;28;20038;-73
2022/02/10 23:40:45;;;;;;;59.35;33.38;;;10.30;60.10;;;;;;4995359;28;20364;-69
2022/02/10 23:43:11;;;;;;;57.63;32.33;;;10.20;60.60;;;;;;4987390;28;20049;-70
2022/02/10 23:45:41;;;;;;;51.65;31.85;;;10.20;60.20;;;;;;4995061;28;20467;-69
2022/02/10 23:48:06;;;;;;;50.78;29.60;;;10.10;60.00;;;;;;4995063;28;20033;-70
2022/02/10 23:50:34;;;;;;;48.63;29.45;;;10.10;60.00;;;;;;4995125;28;20049;-70
2022/02/10 23:53:00;;;;;;;45.30;28.60;;;10.00;59.70;;;;;;4995008;28;20030;-72
2022/02/10 23:55:32;;;;;;;43.65;27.77;;;10.00;59.70;;;;;;4994694;28;20027;-70
